Time;durP1;ratioP1;P1;durP2;ratioP2;P2;SDS_P1;SDS_P2;PMS_P1;PMS_P2;Temp;Humidity;BMP_temperature;BMP_pressure;BME280_temperature;BME280_humidity;BME280_pressure;Samples;Min_cycle;Max_cycle;Signal;HPM_P1;HPM_P2
2023/04/10 00:00:07;;;;;;;2.95;1.20;;;;;;;18.74;49.45;101779.06;5034226;28;20045;-56
2023/04/10 00:02:38;;;;;;;2.40;1.40;;;;;;;18.75;49.23;101769.19;5039000;28;20041;-56
2023/04/10 00:05:06;;;;;;;3.80;1.70;;;;;;;18.74;49.26;101770.16;5054572;28;20045;-57
2023/04/10 00:07:34;;;;;;;2.75;1.40;;;;;;;18.73;49.23;101771.97;5053978;28;20041;-55
2023/04/10 00:10:02;;;;;;;2.75;1.05;;;;;;;18.74;49.02;101762.09;5054010;28;20763;-54
2023/04/10 00:12:29;;;;;;;3.17;1.50;;;;;;;18.73;49.03;101766.63;5053128;28;20484;-56
2023/04/10 00:14:57;;;;;;;2.08;1.05;;;;;;;18.74;48.80;101767.47;5053066;28;20492;-48
2023/04/10 00:17:24;;;;;;;4.28;1.42;;;;;;;18.74;49.00;101771.00;5053850;28;20071;-50
2023/04/10 00:19:52;;;;;;;2.42;1.20;;;;;;;18.74;49.00;101762.09;5053007;28;20059;-48
2023/04/10 00:22:19;;;;;;;2.30;1.10;;;;;;;18.74;49.02;101759.44;5053087;28;20051;-49
2023/04/10 00:24:46;;;;;;;3.58;1.40;;;;;;;18.74;48.85;101759.44;5053322;28;20059;-56
2023/04/10 00:27:14;;;;;;;2.60;1.33;;;;;;;18.74;48.83;101762.09;5053573;28;20052;-52
2023/04/10 00:29:41;;;;;;;3.45;1.65;;;;;;;18.74;48.63;101756.75;5053999;28;20053;-56
2023/04/10 00:32:09;;;;;;;3.95;2.42;;;;;;;18.74;48.71;101762.09;5053557;28;20052;-55
2023/04/10 00:34:36;;;;;;;1.92;1.10;;;;;;;18.74;48.70;101756.75;5053655;28;20492;-47
2023/04/10 00:37:03;;;;;;;3.15;1.60;;;;;;;18.74;48.43;101760.28;5053799;28;20063;-47
2023/04/10 00:39:32;;;;;;;3.22;1.63;;;;;;;18.73;48.05;101750.53;5053647;28;20068;-47
2023/04/10 00:42:01;;;;;;;3.33;1.52;;;;;;;18.74;48.03;101751.38;5053450;28;20070;-47
2023/04/10 00:44:36;;;;;;;3.25;1.60;;;;;;;18.74;48.23;101748.69;5053781;28;20411;-55
2023/04/10 00:47:04;;;;;;;3.03;1.48;;;;;;;18.74;48.15;101751.38;5053704;28;20049;-56
2023/04/10 00:49:32;;;;;;;3.42;1.70;;;;;;;18.74;48.23;101746.88;5053325;28;20056;-55
2023/04/10 00:52:00;;;;;;;3.50;1.38;;;;;;;18.74;48.06;101740.66;5051516;28;20049;-56
2023/04/10 00:54:28;;;;;;;3.03;1.30;;;;;;;18.74;47.93;101738.81;5053402;28;20048;-49
2023/04/10 00:56:57;;;;;;;2.58;1.35;;;;;;;18.74;47.94;101746.00;5053199;28;20052;-54
2023/04/10 00:59:25;;;;;;;2.47;1.27;;;;;;;18.74;48.13;101744.19;5053186;28;20049;-55
2023/04/10 01:01:52;;;;;;;3.13;1.42;;;;;;;18.75;48.33;101745.03;5053423;28;20049;-55
2023/04/10 01:04:21;;;;;;;2.83;1.52;;;;;;;18.74;48.29;101746.88;5053137;28;20052;-56
2023/04/10 01:06:58;;;;;;;2.58;1.40;;;;;;;18.74;47.97;101744.19;5053200;28;20395;-48
2023/04/10 01:09:33;;;;;;;2.85;1.25;;;;;;;18.74;48.04;101749.56;5051993;28;20380;-47
2023/04/10 01:12:44;;;;;;;2.63;1.48;;;;;;;18.74;47.82;101749.56;5053299;28;20399;-50
2023/04/10 01:15:16;;;;;;;3.67;1.73;;;;;;;18.75;48.01;101745.91;5020882;28;20053;-56
2023/04/10 01:17:54;;;;;;;2.17;1.30;;;;;;;18.74;47.97;101741.50;5035327;28;20423;-55
2023/04/10 01:20:27;;;;;;;3.05;1.25;;;;;;;18.74;47.92;101744.19;5047955;28;20053;-55
2023/04/10 01:23:08;;;;;;;2.92;1.60;;;;;;;18.75;47.84;101747.72;5031062;28;20045;-56
2023/04/10 01:25:44;;;;;;;2.35;1.30;;;;;;;18.75;47.81;101751.25;5032597;28;20376;-47
2023/04/10 01:28:18;;;;;;;1.98;1.08;;;;;;;18.74;47.77;101746.88;5035759;28;20050;-50
2023/04/10 01:30:58;;;;;;;2.65;1.45;;;;;;;18.75;47.79;101737.00;5036316;28;20125;-48
2023/04/10 01:33:31;;;;;;;2.47;1.23;;;;;;;18.74;47.62;101738.81;5035587;28;20057;-48
2023/04/10 01:36:03;;;;;;;2.55;1.40;;;;;;;18.75;47.51;101739.69;5037157;28;20049;-55
2023/04/10 01:38:32;;;;;;;3.83;1.67;;;;;;;18.75;47.54;101743.22;5019191;28;20049;-56
2023/04/10 01:41:01;;;;;;;2.75;1.30;;;;;;;18.74;47.50;101735.28;5035840;28;20500;-55
2023/04/10 01:43:32;;;;;;;2.65;1.08;;;;;;;18.75;47.22;101742.34;5036063;28;20045;-55
2023/04/10 01:46:02;;;;;;;2.67;1.50;;;;;;;18.74;47.27;101736.13;5035432;28;20057;-56
2023/04/10 01:48:30;;;;;;;4.80;1.60;;;;;;;18.75;47.23;101747.72;5035371;28;20060;-55
2023/04/10 01:51:00;;;;;;;3.58;1.65;;;;;;;18.75;47.38;101743.22;5036945;28;20049;-55
2023/04/10 01:53:30;;;;;;;2.70;1.70;;;;;;;18.75;47.06;101745.03;5035282;28;20045;-55
2023/04/10 01:55:58;;;;;;;2.88;1.67;;;;;;;18.75;47.27;101747.72;5035964;28;20058;-56
2023/04/10 01:58:26;;;;;;;2.30;1.50;;;;;;;18.74;47.17;101741.50;5035164;28;20046;-56
2023/04/10 02:00:55;;;;;;;3.28;1.50;;;;;;;18.75;47.35;101748.59;5035113;28;20064;-57
2023/04/10 02:03:23;;;;;;;2.85;1.23;;;;;;;18.75;47.28;101747.72;5035461;28;20400;-55
2023/04/10 02:05:50;;;;;;;2.55;1.30;;;;;;;18.75;47.11;101745.03;5055519;28;20037;-55
2023/04/10 02:08:26;;;;;;;2.70;1.05;;;;;;;18.76;47.38;101746.78;5056133;28;20041;-54
2023/04/10 02:11:01;;;;;;;2.50;1.35;;;;;;;18.75;47.57;101747.72;5056461;28;20056;-54
2023/04/10 02:13:30;;;;;;;3.63;1.88;;;;;;;18.75;47.67;101750.41;5048764;28;20049;-55
2023/04/10 02:15:59;;;;;;;2.78;1.30;;;;;;;18.76;47.79;101749.47;5034945;28;20056;-55
2023/04/10 02:18:33;;;;;;;3.08;1.60;;;;;;;18.76;47.57;101746.78;5035462;28;20053;-56
2023/04/10 02:21:02;;;;;;;2.97;1.55;;;;;;;18.76;47.72;101752.16;5034490;28;20064;-56
2023/04/10 02:23:29;;;;;;;2.13;1.20;;;;;;;18.75;47.85;101753.94;5034896;28;20476;-55
2023/04/10 02:25:57;;;;;;;2.90;1.50;;;;;;;18.75;47.60;101745.91;5034900;28;20054;-53
2023/04/10 02:28:25;;;;;;;2.50;1.25;;;;;;;18.75;47.68;101753.94;5036255;28;20042;-57
2023/04/10 02:30:52;;;;;;;3.67;1.45;;;;;;;18.77;47.66;101751.19;5035906;28;20048;-55
2023/04/10 02:33:19;;;;;;;3.33;1.40;;;;;;;18.76;47.63;101747.63;5036237;28;20052;-55
2023/04/10 02:35:47;;;;;;;2.92;1.48;;;;;;;18.75;47.75;101751.25;5036743;28;20053;-54
2023/04/10 02:38:14;;;;;;;3.70;1.60;;;;;;;18.77;47.58;101753.84;5034513;28;20404;-51
2023/04/10 02:40:44;;;;;;;4.20;1.50;;;;;;;18.76;47.74;101749.47;5035761;28;20064;-56
2023/04/10 02:43:13;;;;;;;3.30;1.33;;;;;;;18.75;47.62;101750.41;5034732;28;20060;-56
2023/04/10 02:45:41;;;;;;;5.80;1.60;;;;;;;18.75;47.47;101756.63;5034313;28;20053;-49
2023/04/10 02:48:13;;;;;;;3.13;1.50;;;;;;;18.75;47.50;101748.59;5034587;28;20072;-47
2023/04/10 02:50:44;;;;;;;3.85;1.50;;;;;;;18.76;47.38;101749.47;5034668;28;20057;-47
2023/04/10 02:53:15;;;;;;;2.65;1.48;;;;;;;18.75;47.37;101748.59;5034843;28;20496;-48
2023/04/10 02:55:42;;;;;;;2.83;1.60;;;;;;;18.75;47.27;101745.03;5017984;28;20060;-50
2023/04/10 02:58:10;;;;;;;2.50;1.50;;;;;;;18.76;47.28;101752.16;5035194;28;20042;-50
2023/04/10 03:00:47;;;;;;;2.42;1.40;;;;;;;18.75;47.33;101753.94;5036529;28;20056;-48
2023/04/10 03:03:19;;;;;;;3.22;1.50;;;;;;;18.76;47.27;101754.84;5038327;28;20041;-48
2023/04/10 03:05:52;;;;;;;3.03;1.73;;;;;;;18.76;47.17;101754.84;5054230;28;20045;-48
2023/04/10 03:08:26;;;;;;;2.70;1.42;;;;;;;18.76;47.06;101749.47;5054455;28;20052;-49
2023/04/10 03:10:53;;;;;;;3.33;1.48;;;;;;;18.75;47.12;101755.78;5054070;28;20052;-49
2023/04/10 03:13:22;;;;;;;3.30;1.55;;;;;;;18.75;47.01;101759.31;5048984;28;20056;-52
2023/04/10 03:15:49;;;;;;;3.95;1.63;;;;;;;18.75;47.15;101756.63;5035509;28;20056;-46
2023/04/10 03:18:17;;;;;;;3.45;1.60;;;;;;;18.76;46.94;101757.50;5033611;28;20060;-49
2023/04/10 03:20:47;;;;;;;2.42;1.38;;;;;;;18.75;47.01;101758.44;5053443;28;20074;-51
2023/04/10 03:23:15;;;;;;;2.67;1.70;;;;;;;18.74;46.94;101757.59;5043087;28;20045;-50
2023/04/10 03:25:42;;;;;;;2.42;1.35;;;;;;;18.75;46.95;101772.72;5033346;28;20057;-49
2023/04/10 03:28:11;;;;;;;2.53;1.50;;;;;;;18.74;46.82;101765.66;5034121;28;20381;-47
2023/04/10 03:30:38;;;;;;;3.08;1.48;;;;;;;18.74;46.80;101762.97;5033646;28;20057;-47
2023/04/10 03:33:05;;;;;;;4.60;1.65;;;;;;;18.75;46.85;101758.44;5033631;28;20511;-47
2023/04/10 03:35:33;;;;;;;2.50;1.30;;;;;;;18.74;47.01;101760.28;5034126;28;20503;-47
2023/04/10 03:38:00;;;;;;;3.10;1.55;;;;;;;18.75;46.94;101761.13;5034736;28;20046;-48
2023/04/10 03:40:27;;;;;;;3.05;1.70;;;;;;;18.74;46.81;101757.59;5034725;28;20046;-47
2023/04/10 03:42:55;;;;;;;3.45;1.73;;;;;;;18.75;46.84;101764.69;5033937;28;20053;-50
2023/04/10 03:45:23;;;;;;;3.58;1.90;;;;;;;18.75;46.79;101759.31;5033780;28;20099;-56
2023/04/10 03:47:51;;;;;;;3.88;1.60;;;;;;;18.75;46.89;101767.34;5034380;28;20045;-56
2023/04/10 03:50:20;;;;;;;2.53;1.45;;;;;;;18.76;46.89;101770.94;5032416;28;20049;-55
2023/04/10 03:52:54;;;;;;;3.08;1.50;;;;;;;18.75;46.74;101763.81;5041612;28;20407;-55
2023/04/10 03:55:23;;;;;;;2.33;1.52;;;;;;;18.75;46.79;101764.69;5053443;28;20053;-47
2023/04/10 03:57:51;;;;;;;3.35;1.70;;;;;;;18.75;46.70;101775.41;5053677;28;20045;-47
2023/04/10 04:00:24;;;;;;;3.97;1.70;;;;;;;18.74;46.86;101773.69;5053141;28;20059;-47
2023/04/10 04:03:03;;;;;;;2.92;1.50;;;;;;;18.75;46.79;101775.41;5052411;28;20053;-47
2023/04/10 04:05:51;;;;;;;2.88;1.50;;;;;;;18.76;46.99;101787.03;5052867;28;20052;-56
2023/04/10 04:08:54;;;;;;;2.58;1.50;;;;;;;18.75;46.73;101791.50;5072613;28;20052;-48
2023/04/10 04:11:44;;;;;;;2.58;1.65;;;;;;;18.74;46.84;101795.16;5027782;28;20068;-49
2023/04/10 04:14:34;;;;;;;2.72;1.58;;;;;;;18.75;46.90;101802.22;5053664;28;20048;-56
2023/04/10 04:17:20;;;;;;;2.53;1.60;;;;;;;18.76;46.71;101803.97;5060548;28;20060;-56
2023/04/10 04:20:06;;;;;;;3.33;1.83;;;;;;;18.75;46.80;101804.91;5060904;28;20438;-57
2023/04/10 04:22:46;;;;;;;3.28;1.83;;;;;;;18.76;46.66;101811.16;5052766;28;20060;-55
2023/04/10 04:25:40;;;;;;;3.85;1.60;;;;;;;18.75;46.67;101815.63;5032140;28;20044;-47
2023/04/10 04:28:30;;;;;;;3.53;1.73;;;;;;;18.75;46.57;101809.41;5039309;28;20065;-48
2023/04/10 04:31:24;;;;;;;;;;;;;;;18.75;46.53;101818.31;5038894;28;20412;-47
2023/04/10 04:34:11;;;;;;;3.00;1.73;;;;;;;18.75;46.47;101822.84;5033119;28;19928;-47
2023/04/10 04:36:38;;;;;;;3.33;1.92;;;;;;;18.75;46.33;101822.84;5033843;28;20053;-56
2023/04/10 04:39:34;;;;;;;4.45;2.10;;;;;;;18.74;46.35;101821.97;5032527;28;20045;-56
2023/04/10 04:42:24;;;;;;;4.13;1.80;;;;;;;18.74;46.28;101827.34;5039626;28;20479;-55
2023/04/10 04:45:10;;;;;;;3.17;1.95;;;;;;;18.74;46.27;101824.66;5060793;28;20407;-47
2023/04/10 04:48:06;;;;;;;5.80;1.83;;;;;;;18.75;46.18;101833.56;5053070;28;20053;-47
2023/04/10 04:50:52;;;;;;;3.35;1.73;;;;;;;18.74;46.29;101832.72;5060330;28;20063;-51
2023/04/10 04:53:38;;;;;;;3.28;1.83;;;;;;;18.73;46.30;101831.00;5057293;28;20068;-51
2023/04/10 04:56:26;;;;;;;2.58;1.60;;;;;;;18.74;46.22;101830.03;5053365;28;20057;-54
2023/04/10 04:59:07;;;;;;;2.88;1.67;;;;;;;18.74;46.09;101839.91;5052897;28;20060;-56
2023/04/10 05:01:54;;;;;;;4.05;2.08;;;;;;;18.74;46.16;101847.94;5051508;28;20064;-55
2023/04/10 05:04:40;;;;;;;2.40;1.50;;;;;;;18.74;46.23;101845.25;5060056;28;20052;-55
2023/04/10 05:07:24;;;;;;;2.45;1.58;;;;;;;18.73;46.15;101847.09;5052057;28;20057;-55
2023/04/10 05:10:15;;;;;;;3.00;1.55;;;;;;;18.73;46.13;101847.09;5053038;28;20049;-55
2023/04/10 05:12:45;;;;;;;2.72;1.70;;;;;;;18.74;46.04;101843.44;5052921;28;20040;-55
2023/04/10 05:15:41;;;;;;;3.08;1.80;;;;;;;18.73;46.00;101847.09;5069334;28;20072;-47
2023/04/10 05:18:33;;;;;;;2.70;1.50;;;;;;;18.73;46.20;101855.13;5043440;28;20396;-49
2023/04/10 05:21:09;;;;;;;2.80;1.90;;;;;;;18.73;46.05;101849.78;5051859;28;20064;-50
2023/04/10 05:23:45;;;;;;;2.78;1.50;;;;;;;18.74;46.13;101858.69;5051462;28;20056;-46
2023/04/10 05:26:32;;;;;;;2.30;1.58;;;;;;;18.74;45.98;101864.03;5060863;28;20492;-56
2023/04/10 05:29:25;;;;;;;2.95;1.63;;;;;;;18.73;46.23;101871.22;5033943;28;20060;-55
2023/04/10 05:32:11;;;;;;;3.47;1.70;;;;;;;18.73;46.11;101870.38;5039146;28;20057;-55
2023/04/10 05:34:52;;;;;;;3.17;2.03;;;;;;;18.73;46.10;101875.75;5032133;28;20060;-47
2023/04/10 05:37:59;;;;;;;2.58;1.52;;;;;;;18.73;46.10;101879.28;5071332;28;20052;-50
2023/04/10 05:40:49;;;;;;;3.00;1.73;;;;;;;18.73;46.16;101876.59;5060967;28;20486;-46
2023/04/10 05:43:35;;;;;;;3.10;1.65;;;;;;;18.73;46.25;101876.59;5040059;28;20049;-46
2023/04/10 05:46:22;;;;;;;3.55;2.03;;;;;;;18.71;46.18;101880.34;5032932;28;20065;-55
2023/04/10 05:49:10;;;;;;;3.13;1.75;;;;;;;18.72;46.18;101882.06;5042043;28;20061;-55
2023/04/10 05:51:58;;;;;;;3.22;1.70;;;;;;;18.72;46.21;101882.06;5031843;28;20065;-55
2023/04/10 05:54:51;;;;;;;3.63;1.98;;;;;;;18.72;46.23;101884.75;5037748;28;20061;-54
2023/04/10 05:57:47;;;;;;;2.78;1.58;;;;;;;18.73;46.10;101894.53;5032609;28;20044;-58
2023/04/10 06:00:33;;;;;;;2.90;1.73;;;;;;;18.71;46.08;101891.91;5039654;28;20385;-55
2023/04/10 06:03:29;;;;;;;3.95;2.10;;;;;;;18.71;46.06;101894.59;5040956;28;20514;-55
2023/04/10 06:06:01;;;;;;;3.35;1.75;;;;;;;18.73;46.11;101897.19;5037042;28;20522;-55
2023/04/10 06:08:30;;;;;;;2.47;1.30;;;;;;;18.72;46.11;101900.84;5050734;28;20056;-55
2023/04/10 06:10:57;;;;;;;3.00;1.75;;;;;;;18.72;46.17;101899.03;5052454;28;20064;-55
2023/04/10 06:13:26;;;;;;;3.67;1.70;;;;;;;18.71;46.22;101894.59;5053709;28;20052;-55
2023/04/10 06:15:57;;;;;;;2.40;1.37;;;;;;;18.72;46.16;101907.06;5055485;28;20064;-55
2023/04/10 06:18:25;;;;;;;2.97;1.90;;;;;;;18.73;46.26;101910.63;5054881;28;20041;-55
2023/04/10 06:20:52;;;;;;;3.78;2.05;;;;;;;18.72;46.11;101906.22;5054809;28;20060;-54
2023/04/10 06:23:20;;;;;;;4.00;1.98;;;;;;;18.73;46.16;101913.31;5056101;28;20049;-54
2023/04/10 06:25:47;;;;;;;2.33;1.40;;;;;;;18.71;46.16;101910.69;5055525;28;20053;-51
2023/04/10 06:28:14;;;;;;;2.30;1.48;;;;;;;18.73;46.07;101914.16;5053899;28;20049;-48
2023/04/10 06:30:45;;;;;;;3.05;1.90;;;;;;;18.73;46.02;101915.97;5054337;28;20048;-47
2023/04/10 06:33:13;;;;;;;3.00;2.05;;;;;;;18.73;45.99;101914.16;5055175;28;20502;-46
2023/04/10 06:35:43;;;;;;;2.85;1.98;;;;;;;18.73;45.89;101913.31;5054257;28;20057;-55
2023/04/10 06:38:11;;;;;;;2.75;1.70;;;;;;;18.74;46.08;101915.88;5055003;28;20063;-54
2023/04/10 06:40:40;;;;;;;3.90;2.33;;;;;;;18.74;45.73;101915.88;5054876;28;20053;-46
2023/04/10 06:43:07;;;;;;;2.83;1.80;;;;;;;18.74;46.15;101918.53;5055688;28;20394;-46
2023/04/10 06:45:37;;;;;;;2.35;1.40;;;;;;;18.74;46.03;101915.00;5056167;28;20060;-46
2023/04/10 06:48:05;;;;;;;3.45;2.00;;;;;;;18.73;45.97;101911.47;5055677;28;20399;-47
2023/04/10 06:50:32;;;;;;;3.00;2.13;;;;;;;18.74;46.32;101915.00;5055467;28;20041;-48
2023/04/10 06:53:00;;;;;;;3.72;2.05;;;;;;;18.74;45.93;101912.31;5055360;28;20043;-46
2023/04/10 06:55:28;;;;;;;2.72;1.75;;;;;;;18.75;46.04;101908.69;5055998;28;20064;-55
2023/04/10 06:57:55;;;;;;;2.65;1.95;;;;;;;18.75;46.04;101911.34;5055307;28;20082;-55
2023/04/10 07:00:23;;;;;;;2.72;1.70;;;;;;;18.75;46.00;101914.03;5055414;28;20372;-55
2023/04/10 07:02:50;;;;;;;3.28;1.77;;;;;;;18.75;46.12;101914.91;5055313;28;20045;-55
2023/04/10 07:05:17;;;;;;;3.35;2.00;;;;;;;18.75;46.07;101903.31;5055636;28;20056;-55
2023/04/10 07:07:46;;;;;;;3.60;2.22;;;;;;;18.75;46.08;101906.84;5055263;28;20045;-55
2023/04/10 07:10:13;;;;;;;2.60;1.60;;;;;;;18.75;46.02;101906.84;5055025;28;20052;-52
2023/04/10 07:12:41;;;;;;;2.30;1.60;;;;;;;18.75;46.03;101904.16;5054489;28;20479;-54
2023/04/10 07:15:08;;;;;;;3.90;1.80;;;;;;;18.75;46.29;101912.22;5035718;28;20112;-54
2023/04/10 07:17:36;;;;;;;3.03;1.83;;;;;;;18.76;46.07;101911.28;5035189;28;20361;-55
2023/04/10 07:20:04;;;;;;;2.53;1.73;;;;;;;18.77;45.98;101909.44;5040522;28;20411;-53
2023/04/10 07:22:31;;;;;;;4.38;2.17;;;;;;;18.77;46.12;101902.25;5054943;28;20049;-54
2023/04/10 07:24:58;;;;;;;3.60;1.80;;;;;;;18.77;46.12;101901.41;5054539;28;20064;-47
2023/04/10 07:27:26;;;;;;;4.13;2.15;;;;;;;18.77;46.02;101899.56;5040275;28;20049;-47
2023/04/10 07:29:55;;;;;;;3.33;1.70;;;;;;;18.78;46.06;101897.75;5034846;28;20049;-47
2023/04/10 07:32:22;;;;;;;4.10;2.03;;;;;;;18.78;46.15;101898.59;5034867;28;20056;-47
2023/04/10 07:34:50;;;;;;;2.90;1.63;;;;;;;18.79;46.09;101894.09;5035588;28;20045;-47
2023/04/10 07:37:18;;;;;;;2.50;1.63;;;;;;;18.80;46.15;101900.31;5035082;28;20049;-48
2023/04/10 07:39:45;;;;;;;2.83;1.83;;;;;;;18.79;46.11;101899.47;5034449;28;20052;-49
2023/04/10 07:42:12;;;;;;;3.45;1.70;;;;;;;18.79;45.99;101888.72;5040689;28;20045;-48
2023/04/10 07:44:39;;;;;;;4.38;2.03;;;;;;;18.80;45.92;101893.16;5054597;28;20049;-48
2023/04/10 07:47:07;;;;;;;3.65;1.70;;;;;;;18.81;45.94;101896.69;5054544;28;20063;-48
2023/04/10 07:49:34;;;;;;;2.88;1.88;;;;;;;18.82;46.07;101898.41;5054401;28;20045;-47
2023/04/10 07:52:01;;;;;;;3.35;1.95;;;;;;;18.81;45.87;101894.88;5054698;28;20057;-49
2023/04/10 07:54:33;;;;;;;3.13;1.60;;;;;;;18.82;46.17;101901.94;5054206;28;20045;-48
2023/04/10 07:57:00;;;;;;;2.88;1.88;;;;;;;18.81;45.91;101902.91;5055094;28;20048;-51
2023/04/10 07:59:28;;;;;;;4.22;1.88;;;;;;;18.82;45.99;101895.72;5054323;28;20512;-55
2023/04/10 08:01:55;;;;;;;2.85;1.75;;;;;;;18.83;45.90;101905.50;5054336;28;20049;-54
2023/04/10 08:04:23;;;;;;;2.60;1.60;;;;;;;18.82;46.01;101901.09;5053838;28;20041;-55
2023/04/10 08:06:50;;;;;;;4.32;1.50;;;;;;;18.83;45.98;101905.50;5053479;28;20056;-55
2023/04/10 08:09:18;;;;;;;3.08;1.75;;;;;;;18.83;45.79;101916.22;5054010;28;20033;-54
2023/04/10 08:11:45;;;;;;;3.20;1.40;;;;;;;18.82;45.86;101906.47;5053979;28;20056;-53
2023/04/10 08:14:13;;;;;;;3.20;1.63;;;;;;;18.82;45.79;101915.34;5040658;28;20049;-55
2023/04/10 08:16:44;;;;;;;2.65;1.70;;;;;;;18.83;45.78;101921.59;5034563;28;20476;-54
2023/04/10 08:19:12;;;;;;;5.72;1.88;;;;;;;18.84;45.66;101928.66;5033974;28;20061;-53
2023/04/10 08:21:39;;;;;;;2.50;1.70;;;;;;;18.85;44.26;101925.03;5033337;28;20049;-57
2023/04/10 08:24:06;;;;;;;2.53;1.70;;;;;;;18.85;42.63;101933.09;5033415;28;20049;-57
2023/04/10 08:26:34;;;;;;;6.70;2.50;;;;;;;18.85;40.79;101925.03;5034098;28;20383;-55
2023/04/10 08:29:01;;;;;;;3.88;1.98;;;;;;;18.84;41.21;101928.66;5032237;28;20502;-55
2023/04/10 08:31:29;;;;;;;3.50;2.15;;;;;;;18.82;41.11;101919.88;5034251;28;20367;-54
2023/04/10 08:33:56;;;;;;;3.83;2.15;;;;;;;18.82;42.00;101925.25;5033894;28;20049;-54
2023/04/10 08:36:26;;;;;;;3.97;1.95;;;;;;;18.83;40.50;101922.44;5037145;28;20414;-55
2023/04/10 08:38:53;;;;;;;3.03;1.92;;;;;;;18.84;40.32;101926.88;5050938;28;20041;-57
2023/04/10 08:41:20;;;;;;;3.65;2.17;;;;;;;18.85;39.84;101925.03;5049988;28;20041;-57
2023/04/10 08:43:48;;;;;;;5.63;2.50;;;;;;;18.85;39.69;101925.91;5033895;28;20050;-56
2023/04/10 08:46:16;;;;;;;4.25;2.10;;;;;;;18.85;40.63;101922.34;5033883;28;20064;-57
2023/04/10 08:49:00;;;;;;;5.38;2.30;;;;;;;18.86;38.81;101924.06;5034019;28;20046;-56
2023/04/10 08:51:48;;;;;;;3.78;1.77;;;;;;;18.86;39.39;101916.03;5033728;28;20046;-56
2023/04/10 08:54:27;;;;;;;4.80;2.05;;;;;;;18.87;39.72;101915.91;5043644;28;20052;-56
2023/04/10 08:56:57;;;;;;;2.60;1.77;;;;;;;18.87;39.74;101918.59;5053896;28;20044;-56
2023/04/10 08:59:24;;;;;;;3.90;1.60;;;;;;;18.88;39.61;101933.75;5053255;28;20508;-56
2023/04/10 09:01:52;;;;;;;6.50;2.47;;;;;;;18.86;38.16;101924.94;5053059;28;20481;-48
2023/04/10 09:04:20;;;;;;;3.15;1.90;;;;;;;18.84;37.83;101925.97;5053034;28;20049;-55
2023/04/10 09:06:48;;;;;;;4.38;2.30;;;;;;;18.83;38.53;101919.75;5053443;28;20041;-55
2023/04/10 09:09:15;;;;;;;4.15;2.38;;;;;;;18.83;39.19;101921.59;5053032;28;20045;-55
2023/04/10 09:11:51;;;;;;;4.13;2.22;;;;;;;18.82;38.32;101923.41;5053005;28;20474;-54
2023/04/10 09:14:23;;;;;;;3.33;2.20;;;;;;;18.81;38.35;101918.16;5038927;28;20049;-49
2023/04/10 09:16:52;;;;;;;4.82;2.83;;;;;;;18.80;37.72;101928.03;5033857;28;20049;-56
2023/04/10 09:19:30;;;;;;;4.28;2.00;;;;;;;18.80;39.64;101922.66;5033071;28;20045;-51
2023/04/10 09:21:58;;;;;;;7.55;2.63;;;;;;;18.82;38.69;101927.91;5052584;28;20045;-55
2023/04/10 09:24:27;;;;;;;3.40;2.10;;;;;;;18.82;38.75;101919.88;5053257;28;20056;-51
2023/04/10 09:26:56;;;;;;;4.55;2.17;;;;;;;18.82;39.15;101927.91;5052808;28;20064;-56
2023/04/10 09:29:26;;;;;;;4.72;2.38;;;;;;;18.85;38.98;101925.03;5040330;28;20053;-55
2023/04/10 09:31:53;;;;;;;3.45;2.08;;;;;;;18.86;37.00;101927.59;5032159;28;20045;-55
2023/04/10 09:34:21;;;;;;;5.82;2.20;;;;;;;18.87;37.98;101925.78;5031823;28;20076;-55
2023/04/10 09:36:57;;;;;;;4.63;2.30;;;;;;;18.87;37.70;101925.78;5033158;28;20507;-48
2023/04/10 09:39:39;;;;;;;3.20;2.08;;;;;;;18.86;38.17;101927.59;5032791;28;20064;-48
2023/04/10 09:42:08;;;;;;;4.17;2.53;;;;;;;18.85;38.56;101925.03;5032988;28;20492;-47
2023/04/10 09:44:37;;;;;;;4.80;2.78;;;;;;;18.82;39.20;101925.25;5032894;28;20045;-53
2023/04/10 09:47:17;;;;;;;4.43;2.35;;;;;;;18.80;39.06;101933.41;5032934;28;20057;-54
2023/04/10 09:49:48;;;;;;;6.60;2.55;;;;;;;18.78;38.90;101922.75;5042945;28;20044;-55
2023/04/10 09:52:21;;;;;;;4.63;2.20;;;;;;;18.78;38.76;101925.44;5056781;28;20056;-50
2023/04/10 09:54:49;;;;;;;3.67;2.47;;;;;;;18.78;37.58;101922.75;5056972;28;20049;-46
2023/04/10 09:57:18;;;;;;;4.05;2.42;;;;;;;18.75;38.04;101922.94;5056697;28;20055;-50
2023/04/10 09:59:57;;;;;;;4.22;2.33;;;;;;;18.76;37.62;101913.09;5056345;28;20045;-49
2023/04/10 10:02:28;;;;;;;5.15;2.38;;;;;;;18.78;39.53;101924.56;5056594;28;20045;-51
2023/04/10 10:04:59;;;;;;;4.22;2.20;;;;;;;18.81;39.91;101918.16;5056856;28;20045;-48
2023/04/10 10:07:29;;;;;;;4.40;2.03;;;;;;;18.84;40.63;101925.97;5056321;28;20051;-50
2023/04/10 10:09:57;;;;;;;3.42;2.00;;;;;;;18.87;41.03;101917.72;5056119;28;20044;-47
2023/04/10 10:12:36;;;;;;;3.65;1.90;;;;;;;18.90;40.92;101913.03;5056688;28;20392;-47
2023/04/10 10:15:13;;;;;;;3.28;2.05;;;;;;;18.92;41.22;101912.91;5036212;28;20041;-54
2023/04/10 10:18:02;;;;;;;3.53;1.90;;;;;;;18.94;41.27;101905.63;5036338;28;20060;-51
2023/04/10 10:20:31;;;;;;;3.35;2.20;;;;;;;18.96;41.07;101906.41;5036595;28;20045;-55
2023/04/10 10:23:02;;;;;;;5.03;1.98;;;;;;;18.96;41.22;101896.53;5036076;28;20051;-53
2023/04/10 10:25:30;;;;;;;3.35;2.10;;;;;;;18.97;41.51;101892.00;5035625;28;20056;-50
2023/04/10 10:28:01;;;;;;;3.78;1.95;;;;;;;18.97;41.36;101892.88;5036459;28;20045;-49
2023/04/10 10:30:33;;;;;;;5.15;2.40;;;;;;;18.98;41.61;101888.38;5034735;28;20060;-47
2023/04/10 10:33:05;;;;;;;3.25;1.90;;;;;;;18.98;41.64;101881.16;5035365;28;20057;-50
2023/04/10 10:35:36;;;;;;;6.55;2.10;;;;;;;18.99;41.80;101884.72;5036188;28;20045;-54
2023/04/10 10:38:04;;;;;;;4.53;2.10;;;;;;;19.00;41.55;101878.41;5036204;28;20049;-55
2023/04/10 10:40:50;;;;;;;3.65;2.05;;;;;;;19.00;41.87;101876.56;5035477;28;20041;-55
2023/04/10 10:43:31;;;;;;;2.70;1.83;;;;;;;19.00;41.86;101871.22;5035872;28;20060;-55
2023/04/10 10:46:06;;;;;;;3.30;1.90;;;;;;;19.01;42.05;101869.38;5035898;28;20049;-55
2023/04/10 10:48:33;;;;;;;3.17;1.80;;;;;;;19.02;42.07;101873.78;5037203;28;20463;-55
2023/04/10 10:51:02;;;;;;;3.08;1.98;;;;;;;19.01;42.20;101866.69;5034997;28;20049;-55
2023/04/10 10:53:41;;;;;;;4.00;2.15;;;;;;;19.02;42.21;101863.03;5036066;28;20049;-55
2023/04/10 10:56:17;;;;;;;3.42;2.05;;;;;;;19.01;42.29;101862.19;5035651;28;20507;-54
2023/04/10 10:58:46;;;;;;;4.50;2.00;;;;;;;19.02;42.28;101858.53;5035026;28;20056;-55
2023/04/10 11:01:15;;;;;;;4.88;1.83;;;;;;;19.01;42.37;101864.88;5035757;28;20052;-55
2023/04/10 11:03:44;;;;;;;3.40;1.77;;;;;;;19.02;42.39;101855.00;5035333;28;20053;-55
2023/04/10 11:06:18;;;;;;;3.70;1.63;;;;;;;19.02;42.53;101850.47;5035480;28;20046;-46
2023/04/10 11:08:46;;;;;;;5.93;2.85;;;;;;;19.04;42.77;101850.38;5035434;28;20046;-50
2023/04/10 11:11:18;;;;;;;5.25;2.03;;;;;;;19.04;42.79;101850.38;5035233;28;20050;-48
2023/04/10 11:13:49;;;;;;;3.93;2.00;;;;;;;19.04;42.62;101847.72;5035652;28;20049;-46
2023/04/10 11:16:18;;;;;;;3.45;2.05;;;;;;;19.05;42.90;101845.88;5035298;28;20056;-49
2023/04/10 11:18:46;;;;;;;5.72;2.10;;;;;;;19.05;42.89;101836.00;5035452;28;20049;-46
2023/04/10 11:21:22;;;;;;;6.70;2.55;;;;;;;19.06;43.29;101834.16;5040751;28;20049;-48
2023/04/10 11:23:51;;;;;;;7.60;3.30;;;;;;;19.08;43.58;101841.16;5044987;28;20056;-49
2023/04/10 11:26:38;;;;;;;6.63;2.45;;;;;;;19.10;43.56;101827.63;5035270;28;20493;-45
2023/04/10 11:29:26;;;;;;;7.22;2.70;;;;;;;19.10;43.52;101839.22;5054350;28;20049;-45
2023/04/10 11:31:57;;;;;;;4.68;2.70;;;;;;;19.10;43.68;101822.25;5037437;28;20519;-44
2023/04/10 11:34:26;;;;;;;7.95;2.55;;;;;;;19.11;43.66;101803.34;5034859;28;20404;-45
2023/04/10 11:36:53;;;;;;;7.30;2.50;;;;;;;19.11;43.66;101808.72;5035620;28;20052;-44
2023/04/10 11:39:21;;;;;;;6.40;2.30;;;;;;;19.12;43.96;101815.84;5034645;28;20464;-45
2023/04/10 11:41:50;;;;;;;7.85;2.65;;;;;;;19.15;44.05;101814.75;5035161;28;20045;-45
2023/04/10 11:44:27;;;;;;;7.15;2.97;;;;;;;19.17;44.27;101812.81;5034778;28;20072;-47
2023/04/10 11:46:55;;;;;;;6.32;2.65;;;;;;;19.18;44.53;101801.09;5034671;28;20049;-45
2023/04/10 11:49:33;;;;;;;6.20;2.88;;;;;;;19.20;44.48;101801.84;5034581;28;20071;-46